Time;durP1;ratioP1;P1;durP2;ratioP2;P2;SDS_P1;SDS_P2;PMS_P1;PMS_P2;Temp;Humidity;BMP_temperature;BMP_pressure;BME280_temperature;BME280_humidity;BME280_pressure;Samples;Min_cycle;Max_cycle;Signal;HPM_P1;HPM_P2
2022/07/14 00:02:20;;;;;;;;;;;;;;;16.43;51.80;99911.00;4995853;28;771;-64
2022/07/14 00:04:47;;;;;;;;;;;;;;;16.57;51.56;99915.41;4995777;28;819;-64
2022/07/14 00:07:13;;;;;;;;;;;;;;;16.66;51.45;99921.13;4995889;28;783;-65
2022/07/14 00:09:39;;;;;;;;;;;;;;;16.74;51.37;99916.94;4993012;28;1882;-65
2022/07/14 00:12:06;;;;;;;;;;;;;;;16.84;51.02;99918.66;4995372;28;815;-65
2022/07/14 00:14:33;;;;;;;;;;;;;;;16.84;50.77;99923.47;4995267;28;862;-65
2022/07/14 00:16:59;;;;;;;;;;;;;;;16.83;51.02;99917.09;4995247;28;866;-65
2022/07/14 00:19:27;;;;;;;;;;;;;;;16.75;51.28;99918.50;4995181;28;862;-65
2022/07/14 00:21:54;;;;;;;;;;;;;;;16.67;51.66;99923.50;4995117;28;831;-66
2022/07/14 00:24:21;;;;;;;;;;;;;;;16.57;51.76;99918.22;4995111;28;783;-65
2022/07/14 00:26:53;;;;;;;;;;;;;;;16.41;52.50;99921.81;4995087;28;835;-65
2022/07/14 00:29:20;;;;;;;;;;;;;;;16.27;53.05;99920.19;4994978;28;1890;-65
2022/07/14 00:31:47;;;;;;;;;;;;;;;16.14;53.48;99928.50;4995317;28;909;-65
2022/07/14 00:34:13;;;;;;;;;;;;;;;16.07;53.83;99925.91;4994907;28;802;-65
2022/07/14 00:36:39;;;;;;;;;;;;;;;16.01;54.27;99931.22;4995148;28;815;-65
2022/07/14 00:39:06;;;;;;;;;;;;;;;16.00;54.37;99932.44;4995119;28;905;-65
2022/07/14 00:41:32;;;;;;;;;;;;;;;15.97;54.74;99932.53;4995297;28;850;-65
2022/07/14 00:43:59;;;;;;;;;;;;;;;15.93;54.71;99929.81;4995235;28;842;-65
2022/07/14 00:46:25;;;;;;;;;;;;;;;16.01;54.62;99931.22;4994663;28;1268;-65
2022/07/14 00:48:52;;;;;;;;;;;;;;;16.00;54.68;99943.59;4994443;28;1978;-65
2022/07/14 00:51:18;;;;;;;;;;;;;;;15.92;55.05;99933.84;4994650;28;823;-65
2022/07/14 00:53:56;;;;;;;;;;;;;;;15.81;55.58;99925.75;4994519;28;818;-65
2022/07/14 00:56:23;;;;;;;;;;;;;;;15.75;55.89;99924.69;4994553;28;838;-66
2022/07/14 00:58:49;;;;;;;;;;;;;;;15.68;56.13;99922.84;4994590;28;849;-65
2022/07/14 01:01:16;;;;;;;;;;;;;;;15.63;56.52;99926.13;4994554;28;858;-65
2022/07/14 01:03:43;;;;;;;;;;;;;;;15.55;56.95;99941.44;4994281;28;815;-66
2022/07/14 01:06:09;;;;;;;;;;;;;;;15.48;57.31;99941.59;4994566;28;885;-66
2022/07/14 01:08:36;;;;;;;;;;;;;;;15.38;57.64;99939.84;4994251;28;1949;-66
2022/07/14 01:11:05;;;;;;;;;;;;;;;15.29;58.23;99934.88;4994265;28;814;-66
2022/07/14 01:13:32;;;;;;;;;;;;;;;15.20;58.53;99937.47;4994242;28;858;-66
2022/07/14 01:16:02;;;;;;;;;;;;;;;15.16;58.84;99940.31;4976687;28;1303;-66
2022/07/14 01:30:40;;;;;;;;;;;;;;;15.40;58.97;99931.84;4994217;28;1007;-66
2022/07/14 01:33:06;;;;;;;;;;;;;;;15.34;59.11;99930.78;4991798;28;1338;-66
2022/07/14 01:35:31;;;;;;;;;;;;;;;15.28;59.21;99938.88;4993861;28;841;-66
2022/07/14 01:37:58;;;;;;;;;;;;;;;15.24;59.52;99941.72;4993783;28;795;-66
2022/07/14 01:40:25;;;;;;;;;;;;;;;15.17;59.84;99938.31;4993863;28;867;-66
2022/07/14 01:42:51;;;;;;;;;;;;;;;15.05;60.17;99943.31;4993684;28;987;-66
2022/07/14 01:45:18;;;;;;;;;;;;;;;14.96;60.50;99939.56;4993494;28;1412;-66
2022/07/14 01:47:44;;;;;;;;;;;;;;;14.90;60.92;99947.63;4993443;28;1969;-66
2022/07/14 01:50:11;;;;;;;;;;;;;;;14.84;61.15;99947.34;4993515;28;882;-68
2022/07/14 01:52:37;;;;;;;;;;;;;;;14.81;61.44;99950.97;4993491;28;803;-66
2022/07/14 01:55:04;;;;;;;;;;;;;;;14.79;61.24;99950.63;4993463;28;885;-66
2022/07/14 01:57:31;;;;;;;;;;;;;;;14.73;61.60;99946.75;4993535;28;913;-66
2022/07/14 01:59:58;;;;;;;;;;;;;;;14.67;61.82;99952.03;4993469;28;798;-66
2022/07/14 02:02:24;;;;;;;;;;;;;;;14.59;62.15;99955.38;4993527;28;799;-66
2022/07/14 02:04:51;;;;;;;;;;;;;;;14.55;62.57;99952.69;4993534;28;866;-66
2022/07/14 02:07:18;;;;;;;;;;;;;;;14.49;62.78;99955.13;4993469;28;921;-66
2022/07/14 02:12:29;;;;;;;;;;;;;;;14.45;63.00;99951.63;4993152;28;617;-66
2022/07/14 02:14:56;;;;;;;;;;;;;;;14.46;63.06;99953.19;4992370;28;815;-66
2022/07/14 02:17:22;;;;;;;;;;;;;;;14.46;62.98;99958.75;4992898;28;826;-66
2022/07/14 02:19:49;;;;;;;;;;;;;;;14.42;63.13;99960.84;4992962;28;842;-66
2022/07/14 02:22:15;;;;;;;;;;;;;;;14.38;63.20;99962.91;4992918;28;858;-66
2022/07/14 02:24:41;;;;;;;;;;;;;;;14.38;63.43;99957.34;4975506;28;1299;-66
2022/07/14 02:27:07;;;;;;;;;;;;;;;14.40;63.21;99962.44;4975345;28;854;-66
2022/07/14 02:29:34;;;;;;;;;;;;;;;14.38;63.56;99962.09;4992766;28;1886;-66
2022/07/14 02:32:00;;;;;;;;;;;;;;;14.34;63.46;99961.34;4993163;28;1061;-66
2022/07/14 02:34:27;;;;;;;;;;;;;;;14.32;63.80;99964.59;4992706;28;874;-66
2022/07/14 02:36:52;;;;;;;;;;;;;;;14.33;63.73;99960.59;4992738;28;854;-66
2022/07/14 02:39:20;;;;;;;;;;;;;;;14.33;63.55;99962.59;4992650;28;811;-66
2022/07/14 02:41:47;;;;;;;;;;;;;;;14.37;63.42;99964.09;4975183;28;1177;-67
2022/07/14 02:44:14;;;;;;;;;;;;;;;14.42;63.43;99965.59;4992547;28;878;-66
2022/07/14 02:46:41;;;;;;;;;;;;;;;14.44;63.10;99965.94;4992328;28;1261;-66
2022/07/14 02:49:07;;;;;;;;;;;;;;;14.49;63.20;99965.47;4992421;28;1906;-66
2022/07/14 02:51:34;;;;;;;;;;;;;;;14.53;62.80;99974.53;4992439;28;835;-66
2022/07/14 02:54:00;;;;;;;;;;;;;;;14.54;62.82;99978.09;4992458;28;831;-66
2022/07/14 02:56:27;;;;;;;;;;;;;;;14.52;63.06;99972.97;4992409;28;839;-66
2022/07/14 02:58:54;;;;;;;;;;;;;;;14.50;63.16;99973.38;4992365;28;885;-66
2022/07/14 03:01:21;;;;;;;;;;;;;;;14.48;62.98;99973.00;4974900;28;1220;-66
2022/07/14 03:06:54;;;;;;;;;;;;;;;14.39;63.46;99975.56;4992362;28;625;-66
2022/07/14 03:09:20;;;;;;;;;;;;;;;14.40;63.74;99977.16;4992131;28;1910;-66
2022/07/14 03:11:47;;;;;;;;;;;;;;;14.42;63.60;99980.31;4992310;28;854;-66
2022/07/14 03:14:14;;;;;;;;;;;;;;;14.43;63.69;99987.41;4992113;28;870;-66
2022/07/14 03:28:52;;;;;;;;;;;;;;;14.39;63.80;99972.78;4996627;28;1955;-66
2022/07/14 03:31:18;;;;;;;;;;;;;;;14.50;63.51;99980.94;4996563;28;906;-66
2022/07/14 03:37:09;;;;;;;;;;;;;;;14.72;63.00;99981.34;4996041;28;653;-66
2022/07/14 03:39:36;;;;;;;;;;;;;;;14.84;62.51;99983.50;4978452;28;1387;-66
2022/07/14 03:42:02;;;;;;;;;;;;;;;15.07;61.95;99981.88;4995953;28;861;-66
2022/07/14 03:44:29;;;;;;;;;;;;;;;15.39;61.03;99978.41;4995602;28;1214;-66
2022/07/14 03:46:56;;;;;;;;;;;;;;;15.76;60.02;99979.19;4995795;28;780;-68
2022/07/14 03:49:22;;;;;;;;;;;;;;;15.83;59.56;99981.84;4995690;28;1952;-66
2022/07/14 03:54:52;;;;;;;;;;;;;;;15.90;59.21;99978.09;4995785;28;680;-66
2022/07/14 03:57:18;;;;;;;;;;;;;;;15.93;59.09;99980.00;4995584;28;823;-66
2022/07/14 03:59:44;;;;;;;;;;;;;;;15.99;59.06;99980.28;4995661;28;823;-66
2022/07/14 04:02:13;;;;;;;;;;;;;;;16.03;59.26;99984.53;4995505;28;838;-66
2022/07/14 04:04:41;;;;;;;;;;;;;;;16.07;59.45;99978.88;4995742;28;921;-66
2022/07/14 04:07:08;;;;;;;;;;;;;;;16.12;58.58;99990.28;4995474;28;823;-66
2022/07/14 04:12:36;;;;;;;;;;;;;;;16.31;58.47;99993.41;4995637;28;589;-66
2022/07/14 04:15:03;;;;;;;;;;;;;;;16.40;58.45;99990.78;4995383;28;830;-66
2022/07/14 04:17:30;;;;;;;;;;;;;;;16.45;58.23;99992.25;4995748;28;775;-66
2022/07/14 04:19:57;;;;;;;;;;;;;;;16.48;58.40;99999.75;4995452;28;886;-66
2022/07/14 04:22:23;;;;;;;;;;;;;;;16.53;58.37;99994.41;4995516;28;842;-66
2022/07/14 04:24:50;;;;;;;;;;;;;;;16.62;58.34;99998.59;4995243;28;870;-66
2022/07/14 04:27:17;;;;;;;;;;;;;;;16.72;57.94;99989.91;4995548;28;823;-66
2022/07/14 04:29:43;;;;;;;;;;;;;;;16.89;57.57;99995.50;4995696;28;1899;-66
2022/07/14 04:32:10;;;;;;;;;;;;;;;17.08;57.19;99990.97;4995411;28;893;-66
2022/07/14 04:34:37;;;;;;;;;;;;;;;17.25;57.14;100000.06;4977442;28;1201;-66
2022/07/14 04:52:07;;;;;;;;;;;;;;;18.53;54.54;100000.81;4994643;28;654;-65
2022/07/14 04:54:34;;;;;;;;;;;;;;;18.75;53.95;99997.25;4994595;28;803;-65
2022/07/14 04:57:03;;;;;;;;;;;;;;;18.91;53.54;100002.72;4977050;28;1292;-65
2022/07/14 04:59:31;;;;;;;;;;;;;;;19.11;53.35;100001.63;4994804;28;846;-65
2022/07/14 05:01:57;;;;;;;;;;;;;;;19.33;53.03;100004.38;4994718;28;795;-64
2022/07/14 05:04:23;;;;;;;;;;;;;;;19.54;52.62;100003.59;4994839;28;895;-64
2022/07/14 05:06:50;;;;;;;;;;;;;;;19.72;52.22;100002.91;4977396;28;1432;-64
2022/07/14 05:09:18;;;;;;;;;;;;;;;19.88;51.63;100003.91;4994666;28;1910;-64
2022/07/14 05:11:44;;;;;;;;;;;;;;;20.02;51.31;100000.53;4977037;28;910;-64
2022/07/14 05:14:11;;;;;;;;;;;;;;;20.25;51.25;99995.59;4991957;28;1290;-64
2022/07/14 05:16:38;;;;;;;;;;;;;;;20.51;50.55;99998.91;4977108;28;1395;-64
2022/07/14 05:19:05;;;;;;;;;;;;;;;20.74;49.90;100001.16;4976982;28;874;-63
2022/07/14 05:21:31;;;;;;;;;;;;;;;21.00;49.50;100009.25;4994661;28;810;-63
2022/07/14 05:23:58;;;;;;;;;;;;;;;21.44;48.96;100011.69;4994087;28;784;-63
2022/07/14 05:26:25;;;;;;;;;;;;;;;21.85;48.43;100012.19;4993964;28;827;-63
2022/07/14 05:28:52;;;;;;;;;;;;;;;22.06;47.94;100007.53;4993873;28;1894;-63
2022/07/14 05:31:18;;;;;;;;;;;;;;;22.28;46.85;100012.16;4993807;28;887;-63
2022/07/14 05:33:45;;;;;;;;;;;;;;;22.53;46.47;100000.41;4993807;28;890;-63
2022/07/14 05:36:12;;;;;;;;;;;;;;;22.75;46.27;100011.34;4993880;28;866;-63
2022/07/14 05:38:38;;;;;;;;;;;;;;;22.90;46.10;100002.91;4993754;28;822;-62
2022/07/14 05:41:05;;;;;;;;;;;;;;;23.11;45.11;99998.22;4993702;28;831;-62
2022/07/14 05:43:32;;;;;;;;;;;;;;;23.55;44.15;100000.22;4993575;28;814;-62
2022/07/14 05:46:06;;;;;;;;;;;;;;;24.16;43.16;100002.47;4993639;28;807;-63
2022/07/14 05:48:33;;;;;;;;;;;;;;;24.65;42.19;99991.56;4993411;28;1894;-63
2022/07/14 05:51:03;;;;;;;;;;;;;;;24.85;41.04;99997.19;4992457;28;850;-62
2022/07/14 05:53:31;;;;;;;;;;;;;;;24.92;40.93;99998.03;4993458;28;862;-62
2022/07/14 05:55:57;;;;;;;;;;;;;;;25.40;40.53;99994.66;4993445;28;826;-62
2022/07/14 05:58:23;;;;;;;;;;;;;;;26.35;39.35;100007.94;4975968;28;1435;-62
2022/07/14 06:00:50;;;;;;;;;;;;;;;27.31;36.95;100002.59;4993374;28;865;-62
2022/07/14 06:03:18;;;;;;;;;;;;;;;28.26;35.20;99999.69;4993291;28;893;-62
2022/07/14 06:05:45;;;;;;;;;;;;;;;29.33;33.25;100001.25;4993377;28;818;-62
2022/07/14 06:08:12;;;;;;;;;;;;;;;29.53;30.47;99997.19;4993275;28;1968;-62
2022/07/14 06:10:39;;;;;;;;;;;;;;;29.61;30.33;99998.16;4993194;28;831;-62
2022/07/14 06:13:05;;;;;;;;;;;;;;;29.63;29.81;99997.63;4975608;28;1171;-62
2022/07/14 06:15:32;;;;;;;;;;;;;;;30.02;29.56;99999.34;4993092;28;854;-62
2022/07/14 06:17:58;;;;;;;;;;;;;;;30.18;28.47;100003.34;4992987;28;851;-62
2022/07/14 06:20:31;;;;;;;;;;;;;;;29.96;28.28;99998.63;4993192;28;791;-62
2022/07/14 06:26:10;;;;;;;;;;;;;;;30.33;28.08;100003.72;4992938;28;681;-62
2022/07/14 06:40:52;;;;;;;;;;;;;;;32.24;26.65;99999.22;4992859;28;665;-62
2022/07/14 06:43:20;;;;;;;;;;;;;;;32.12;25.15;100010.91;4992598;28;886;-62
2022/07/14 06:45:45;;;;;;;;;;;;;;;32.09;25.29;100009.16;4992563;28;791;-62
2022/07/14 06:48:12;;;;;;;;;;;;;;;32.07;25.62;99999.56;4992299;28;1894;-62
2022/07/14 06:50:41;;;;;;;;;;;;;;;32.19;25.52;100003.75;4992474;28;819;-62
2022/07/14 06:53:08;;;;;;;;;;;;;;;32.82;25.79;100000.38;4992686;28;823;-62
2022/07/14 06:55:35;;;;;;;;;;;;;;;33.53;25.25;99999.25;4992382;28;846;-62
2022/07/14 06:58:01;;;;;;;;;;;;;;;33.86;24.48;100002.56;4992422;28;818;-62
2022/07/14 07:12:39;;;;;;;;;;;;;;;33.94;23.06;100002.66;4992381;28;617;-63
2022/07/14 07:18:09;;;;;;;;;;;;;;;33.58;23.88;100000.41;4992233;28;609;-63
2022/07/14 07:20:36;;;;;;;;;;;;;;;33.99;23.59;100004.56;4992120;28;839;-63
2022/07/14 07:23:03;;;;;;;;;;;;;;;34.41;21.98;100000.84;4974741;28;1190;-62
2022/07/14 07:25:30;;;;;;;;;;;;;;;34.52;22.46;99995.53;4974645;28;867;-63
2022/07/14 07:27:56;;;;;;;;;;;;;;;34.97;21.98;99999.16;4991968;28;1966;-63
2022/07/14 07:30:23;;;;;;;;;;;;;;;34.74;21.31;100002.00;4992165;28;925;-65
2022/07/14 07:35:52;;;;;;;;;;;;;;;34.51;22.25;99994.00;4992048;28;597;-66
2022/07/14 07:38:19;;;;;;;;;;;;;;;34.45;22.73;99999.16;4992189;28;834;-63
2022/07/14 07:40:49;;;;;;;;;;;;;;;34.30;22.92;99999.84;4991613;28;795;-63
2022/07/14 07:43:15;;;;;;;;;;;;;;;34.49;22.41;99993.81;4991794;28;870;-62
2022/07/14 07:45:42;;;;;;;;;;;;;;;35.05;23.18;99990.59;4991958;28;822;-63
2022/07/14 07:48:09;;;;;;;;;;;;;;;35.33;22.34;99993.34;4991765;28;1964;-63
2022/07/14 07:50:35;;;;;;;;;;;;;;;35.63;22.41;99991.06;4992019;28;838;-63
2022/07/14 07:53:02;;;;;;;;;;;;;;;36.01;21.85;99993.16;4992036;28;861;-63
2022/07/14 07:55:29;;;;;;;;;;;;;;;35.73;20.70;99989.16;4991970;28;916;-63
2022/07/14 07:57:56;;;;;;;;;;;;;;;35.89;21.34;99987.81;4991847;28;889;-63
2022/07/14 08:00:22;;;;;;;;;;;;;;;36.09;20.61;99999.66;4991740;28;858;-63
2022/07/14 08:02:52;;;;;;;;;;;;;;;36.30;20.50;99993.69;4991513;28;1234;-63
2022/07/14 08:05:21;;;;;;;;;;;;;;;36.12;20.50;99990.63;4991672;28;874;-64
2022/07/14 08:07:49;;;;;;;;;;;;;;;35.87;21.49;99989.72;4992178;28;1970;-64
2022/07/14 08:10:16;;;;;;;;;;;;;;;36.25;21.81;99989.66;4991875;28;819;-64
2022/07/14 08:12:45;;;;;;;;;;;;;;;36.47;21.82;99981.56;4991987;28;897;-64
2022/07/14 08:15:13;;;;;;;;;;;;;;;36.38;21.88;99989.44;4995181;28;815;-63
2022/07/14 08:17:40;;;;;;;;;;;;;;;36.41;21.09;99989.63;4995319;28;846;-64
2022/07/14 08:20:08;;;;;;;;;;;;;;;36.48;21.21;99986.72;4995265;28;815;-64
2022/07/14 08:22:35;;;;;;;;;;;;;;;36.71;21.30;99980.13;4977783;28;1020;-62
2022/07/14 08:25:04;;;;;;;;;;;;;;;36.92;20.74;99971.19;4995117;28;819;-64
2022/07/14 08:27:31;;;;;;;;;;;;;;;37.12;20.60;99967.22;4995094;28;835;-63
2022/07/14 08:29:58;;;;;;;;;;;;;;;36.71;19.88;99974.38;4994891;28;1911;-63
2022/07/14 08:32:34;;;;;;;;;;;;;;;35.89;20.69;99975.53;4995065;28;806;-63
2022/07/14 08:35:02;;;;;;;;;;;;;;;35.96;20.97;99977.66;4994921;28;838;-63
2022/07/14 08:37:29;;;;;;;;;;;;;;;36.26;20.63;99971.06;4994976;28;807;-63
2022/07/14 08:39:56;;;;;;;;;;;;;;;36.37;20.07;99969.88;4994758;28;850;-63
2022/07/14 08:42:24;;;;;;;;;;;;;;;35.95;20.80;99976.88;4994792;28;850;-64
2022/07/14 08:44:51;;;;;;;;;;;;;;;35.67;21.19;99968.47;4994781;28;859;-63
2022/07/14 08:47:18;;;;;;;;;;;;;;;35.77;21.37;99972.31;4994712;28;831;-63
2022/07/14 08:49:44;;;;;;;;;;;;;;;35.60;20.82;99963.47;4994484;28;1886;-64
2022/07/14 08:52:12;;;;;;;;;;;;;;;36.10;20.97;99963.78;4994632;28;818;-63
2022/07/14 08:54:40;;;;;;;;;;;;;;;36.34;20.78;99960.31;4994648;28;941;-63
2022/07/14 08:57:06;;;;;;;;;;;;;;;36.25;20.97;99958.03;4994642;28;846;-63
2022/07/14 08:59:33;;;;;;;;;;;;;;;36.18;20.92;99956.69;4994566;28;838;-63
2022/07/14 09:02:00;;;;;;;;;;;;;;;36.23;21.15;99957.84;4994446;28;830;-63
2022/07/14 09:04:26;;;;;;;;;;;;;;;35.67;21.37;99957.72;4994396;28;850;-63
2022/07/14 09:06:54;;;;;;;;;;;;;;;35.01;21.62;99955.75;4994407;28;791;-63
2022/07/14 09:09:25;;;;;;;;;;;;;;;34.42;22.23;99945.78;4994338;28;1886;-64
2022/07/14 09:11:57;;;;;;;;;;;;;;;34.06;22.83;99957.25;4994411;28;881;-62
2022/07/14 09:14:25;;;;;;;;;;;;;;;33.94;23.27;99943.19;4994488;28;811;-63
2022/07/14 09:17:12;;;;;;;;;;;;;;;34.03;23.44;99947.66;4994196;28;881;-63
2022/07/14 09:20:00;;;;;;;;;;;;;;;34.14;23.20;99935.13;4994135;28;862;-63
2022/07/14 09:22:27;;;;;;;;;;;;;;;33.94;23.24;99939.56;4994338;28;1126;-63
2022/07/14 09:24:55;;;;;;;;;;;;;;;33.95;23.70;99946.84;4976380;28;1205;-63
2022/07/14 09:27:22;;;;;;;;;;;;;;;33.91;23.39;99947.22;4994012;28;850;-63
2022/07/14 09:29:55;;;;;;;;;;;;;;;33.71;23.42;99953.75;4993926;28;1886;-62
2022/07/14 09:32:41;;;;;;;;;;;;;;;33.45;24.06;99937.47;4993937;28;831;-63
2022/07/14 09:35:09;;;;;;;;;;;;;;;33.08;24.22;99945.19;4993805;28;882;-64
2022/07/14 09:37:37;;;;;;;;;;;;;;;32.83;24.94;99938.97;4993769;28;826;-63
2022/07/14 09:40:05;;;;;;;;;;;;;;;33.42;25.46;99930.78;4993737;28;885;-63
2022/07/14 09:42:57;;;;;;;;;;;;;;;33.52;23.36;99923.22;4993749;28;830;-64
2022/07/14 09:45:29;;;;;;;;;;;;;;;32.92;24.70;99927.81;4988740;28;1159;-63
2022/07/14 09:47:56;;;;;;;;;;;;;;;32.88;25.36;99921.69;4993432;28;1898;-63
2022/07/14 09:50:32;;;;;;;;;;;;;;;32.74;25.15;99915.22;4993538;28;831;-64
2022/07/14 09:53:09;;;;;;;;;;;;;;;32.36;25.35;99911.91;4993534;28;869;-64
2022/07/14 09:55:39;;;;;;;;;;;;;;;31.87;25.72;99921.69;4993715;28;822;-63
2022/07/14 09:58:07;;;;;;;;;;;;;;;31.58;26.32;99917.84;4993558;28;838;-64
2022/07/14 10:00:35;;;;;;;;;;;;;;;31.53;27.06;99915.84;4993350;28;877;-63
2022/07/14 10:34:32;;;;;;;;;;;;;;;32.01;26.47;99890.31;4971990;28;1758;-61
2022/07/14 10:36:58;;;;;;;;;;;;;;;32.27;26.52;99901.69;4972790;28;826;-61
2022/07/14 10:39:46;;;;;;;;;;;;;;;32.33;26.02;99893.75;4973352;28;834;-61
2022/07/14 10:42:21;;;;;;;;;;;;;;;32.61;25.95;99897.34;4973182;28;929;-61
2022/07/14 10:44:49;;;;;;;;;;;;;;;32.60;25.70;99899.41;4973285;28;811;-61
2022/07/14 10:47:19;;;;;;;;;;;;;;;32.50;25.43;99889.75;4973075;28;1093;-62
2022/07/14 10:50:05;;;;;;;;;;;;;;;32.62;26.00;99879.59;4972924;28;1907;-61
2022/07/14 10:52:35;;;;;;;;;;;;;;;33.02;25.77;99882.28;4973149;28;877;-61
2022/07/14 10:55:10;;;;;;;;;;;;;;;33.25;24.75;99879.66;4973074;28;913;-60
2022/07/14 10:57:36;;;;;;;;;;;;;;;33.15;24.62;99882.25;4973045;28;1018;-61
2022/07/14 11:00:03;;;;;;;;;;;;;;;33.58;25.01;99865.00;4973070;28;894;-61
2022/07/14 11:02:31;;;;;;;;;;;;;;;33.67;25.33;99867.38;4972950;28;851;-60
2022/07/14 11:05:04;;;;;;;;;;;;;;;33.92;25.19;99868.47;4972903;28;894;-61
2022/07/14 11:07:40;;;;;;;;;;;;;;;33.85;24.61;99872.06;4973018;28;871;-60
2022/07/14 11:10:27;;;;;;;;;;;;;;;33.75;23.85;99863.22;4972739;28;1955;-61
2022/07/14 11:13:00;;;;;;;;;;;;;;;33.32;23.58;99870.34;4959431;28;1262;-61
2022/07/14 11:15:49;;;;;;;;;;;;;;;33.43;23.79;99869.28;4972834;28;839;-60
2022/07/14 11:18:18;;;;;;;;;;;;;;;33.40;24.31;99867.56;4978092;28;1891;-61
2022/07/14 11:20:59;;;;;;;;;;;;;;;33.35;24.44;99868.47;4992187;28;878;-59
2022/07/14 11:23:34;;;;;;;;;;;;;;;33.48;24.46;99870.47;4992087;28;925;-60
2022/07/14 11:26:06;;;;;;;;;;;;;;;33.92;24.35;99867.69;4992444;28;874;-60
2022/07/14 11:28:34;;;;;;;;;;;;;;;34.47;23.89;99863.75;4992162;28;1965;-60
2022/07/14 11:31:12;;;;;;;;;;;;;;;34.77;23.51;99863.81;4974495;28;939;-60
2022/07/14 11:36:17;;;;;;;;;;;;;;;34.97;23.34;99859.28;4991868;28;1238;-60
2022/07/14 11:36:28;;;;;;;;;;;;;;;35.21;22.89;99862.94;4991836;28;931;-61
2022/07/14 11:39:13;;;;;;;;;;;;;;;35.15;22.47;99862.34;4992052;28;827;-61
2022/07/14 11:41:43;;;;;;;;;;;;;;;35.63;22.92;99865.34;4991964;28;902;-61
2022/07/14 11:44:31;;;;;;;;;;;;;;;35.68;22.63;99858.69;4992179;28;898;-61
2022/07/14 11:46:58;;;;;;;;;;;;;;;35.78;22.61;99861.69;4962446;28;2153;-62
2022/07/14 11:49:25;;;;;;;;;;;;;;;35.80;22.44;99861.13;4995622;28;1970;-62
2022/07/14 11:51:55;;;;;;;;;;;;;;;36.22;22.00;99849.88;4995852;28;1026;-61
2022/07/14 11:54:21;;;;;;;;;;;;;;;36.76;21.94;99847.44;4995946;28;799;-61
2022/07/14 11:56:48;;;;;;;;;;;;;;;36.71;20.99;99836.94;4995669;28;875;-62
2022/07/14 11:59:22;;;;;;;;;;;;;;;36.57;21.56;99836.44;4995582;28;864;-61
2022/07/14 12:01:52;;;;;;;;;;;;;;;36.41;21.61;99845.75;4995557;28;799;-61
2022/07/14 12:04:20;;;;;;;;;;;;;;;36.61;21.21;99844.69;4995859;28;870;-61
2022/07/14 12:10:01;;;;;;;;;;;;;;;37.61;21.09;99832.34;4995388;28;1883;-61
2022/07/14 12:12:38;;;;;;;;;;;;;;;38.39;20.22;99827.16;4995389;28;946;-61
2022/07/14 12:15:21;;;;;;;;;;;;;;;39.03;19.36;99835.84;4977902;28;925;-61
2022/07/14 12:18:12;;;;;;;;;;;;;;;39.16;19.23;99835.41;4995512;28;818;-61
2022/07/14 12:20:43;;;;;;;;;;;;;;;38.61;19.47;99831.09;4995422;28;882;-61
2022/07/14 12:23:10;;;;;;;;;;;;;;;38.65;19.27;99831.41;4995306;28;799;-61
2022/07/14 12:25:40;;;;;;;;;;;;;;;38.86;18.60;99822.22;4995147;28;859;-61
2022/07/14 12:28:09;;;;;;;;;;;;;;;39.42;18.16;99821.50;4977586;28;1899;-61
2022/07/14 12:31:11;;;;;;;;;;;;;;;39.35;18.52;99822.38;4977679;28;874;-61
2022/07/14 12:34:04;;;;;;;;;;;;;;;39.52;18.37;99821.47;4994822;28;1229;-61
2022/07/14 12:36:31;;;;;;;;;;;;;;;39.99;18.32;99822.88;4995029;28;870;-61
2022/07/14 12:39:02;;;;;;;;;;;;;;;39.78;18.17;99816.94;4994856;28;941;-62
2022/07/14 12:41:33;;;;;;;;;;;;;;;39.45;18.51;99814.47;4994858;28;915;-61
2022/07/14 12:56:10;;;;;;;;;;;;;;;38.23;18.87;99820.84;4994938;28;672;-61
2022/07/14 12:58:37;;;;;;;;;;;;;;;38.60;19.05;99809.34;4994592;28;890;-61
2022/07/14 13:01:11;;;;;;;;;;;;;;;39.14;18.77;99812.13;4994142;28;822;-61
2022/07/14 13:03:38;;;;;;;;;;;;;;;39.71;18.39;99814.94;4994478;28;905;-61
2022/07/14 13:06:04;;;;;;;;;;;;;;;39.56;18.30;99816.78;4976916;28;1202;-61
2022/07/14 13:20:51;;;;;;;;;;;;;;;40.12;17.69;99794.84;4994434;28;668;-61
2022/07/14 13:23:20;;;;;;;;;;;;;;;40.30;17.96;99795.41;4994374;28;811;-61
2022/07/14 13:25:47;;;;;;;;;;;;;;;40.75;17.49;99787.78;4994075;28;858;-61
2022/07/14 13:28:13;;;;;;;;;;;;;;;39.80;17.93;99785.28;4993973;28;1894;-61
2022/07/14 13:30:42;;;;;;;;;;;;;;;40.15;17.54;99782.78;4993949;28;858;-61
2022/07/14 13:33:10;;;;;;;;;;;;;;;40.52;17.17;99773.84;4993916;28;1471;-61
2022/07/14 13:35:38;;;;;;;;;;;;;;;41.17;17.35;99771.09;4993894;28;807;-61
2022/07/14 13:38:06;;;;;;;;;;;;;;;40.81;17.80;99772.97;4993760;28;958;-61
2022/07/14 13:40:32;;;;;;;;;;;;;;;39.81;18.40;99773.06;4993850;28;815;-61
2022/07/14 13:42:59;;;;;;;;;;;;;;;39.38;18.62;99763.34;4993724;28;859;-61
2022/07/14 13:45:25;;;;;;;;;;;;;;;39.38;18.42;99769.88;4993703;28;842;-61
2022/07/14 13:47:52;;;;;;;;;;;;;;;37.89;19.52;99758.19;4993707;28;823;-60
2022/07/14 13:53:03;;;;;;;;;;;;;;;38.06;20.58;99754.53;4993638;28;696;-59
2022/07/14 13:55:32;;;;;;;;;;;;;;;37.80;20.65;99756.78;4993623;28;799;-60
2022/07/14 13:57:59;;;;;;;;;;;;;;;38.16;20.79;99747.44;4976192;28;919;-60
2022/07/14 14:00:25;;;;;;;;;;;;;;;38.48;20.48;99760.06;4993211;28;903;-61
2022/07/14 14:05:36;;;;;;;;;;;;;;;40.24;19.80;99751.53;4993369;28;657;-61
2022/07/14 14:08:06;;;;;;;;;;;;;;;40.46;18.80;99747.38;4993284;28;1910;-61
2022/07/14 14:10:33;;;;;;;;;;;;;;;40.08;19.01;99751.13;4992685;28;893;-60
2022/07/14 14:13:00;;;;;;;;;;;;;;;39.89;18.78;99740.38;4993043;28;897;-60
2022/07/14 14:15:26;;;;;;;;;;;;;;;39.70;18.44;99749.81;4993557;28;819;-60
2022/07/14 14:17:53;;;;;;;;;;;;;;;38.97;19.42;99743.69;4993378;28;802;-60
2022/07/14 14:20:19;;;;;;;;;;;;;;;37.46;21.11;99751.78;4993536;28;814;-61
2022/07/14 14:22:46;;;;;;;;;;;;;;;35.16;22.83;99754.75;4993472;28;748;-60
2022/07/14 14:25:12;;;;;;;;;;;;;;;33.53;25.48;99761.44;4975673;28;846;-61
2022/07/14 14:27:39;;;;;;;;;;;;;;;32.45;26.66;99759.06;4992884;28;906;-61
2022/07/14 14:30:06;;;;;;;;;;;;;;;31.83;26.73;99749.81;4992847;28;1886;-61
2022/07/14 14:32:33;;;;;;;;;;;;;;;31.01;27.96;99749.63;4975334;28;1420;-61
2022/07/14 14:34:59;;;;;;;;;;;;;;;30.32;28.86;99737.81;4993164;28;826;-61
2022/07/14 14:40:32;;;;;;;;;;;;;;;30.15;29.37;99745.06;4992793;28;688;-60
2022/07/14 14:42:58;;;;;;;;;;;;;;;29.66;29.75;99741.06;4975453;28;776;-60
2022/07/14 14:45:25;;;;;;;;;;;;;;;29.72;30.21;99746.69;4992628;28;830;-60
2022/07/14 14:50:55;;;;;;;;;;;;;;;30.80;28.87;99725.88;4992582;28;614;-60
2022/07/14 14:53:22;;;;;;;;;;;;;;;31.16;27.57;99728.34;4992443;28;951;-60
2022/07/14 14:55:48;;;;;;;;;;;;;;;31.53;27.38;99728.13;4992768;28;854;-61
2022/07/14 14:58:16;;;;;;;;;;;;;;;31.77;27.07;99720.59;4992402;28;815;-61
2022/07/14 15:00:43;;;;;;;;;;;;;;;32.02;27.37;99720.34;4992409;28;815;-61
2022/07/14 15:03:10;;;;;;;;;;;;;;;32.21;27.43;99726.63;4992366;28;863;-61
2022/07/14 15:05:36;;;;;;;;;;;;;;;32.34;26.72;99720.09;4992244;28;868;-60
2022/07/14 15:08:03;;;;;;;;;;;;;;;32.57;26.56;99708.13;4992205;28;1878;-60
2022/07/14 15:10:30;;;;;;;;;;;;;;;32.53;26.52;99720.66;4992362;28;855;-61
2022/07/14 15:12:56;;;;;;;;;;;;;;;32.32;27.01;99719.88;4992271;28;831;-61
2022/07/14 15:15:23;;;;;;;;;;;;;;;32.04;26.58;99714.84;4992382;28;831;-61
2022/07/14 15:17:49;;;;;;;;;;;;;;;31.91;27.07;99716.38;4992473;28;827;-61
2022/07/14 15:20:25;;;;;;;;;;;;;;;31.93;27.08;99713.75;4992270;28;811;-61
2022/07/14 15:22:51;;;;;;;;;;;;;;;31.95;27.08;99716.06;4995360;28;819;-61
2022/07/14 15:25:19;;;;;;;;;;;;;;;31.96;27.33;99717.56;4998722;28;863;-60
2022/07/14 15:27:45;;;;;;;;;;;;;;;31.82;27.27;99716.88;4998424;28;879;-61
2022/07/14 15:30:12;;;;;;;;;;;;;;;31.51;27.52;99716.47;4998563;28;1953;-60
2022/07/14 15:32:38;;;;;;;;;;;;;;;31.05;27.78;99712.97;4997677;28;1051;-61
2022/07/14 15:35:04;;;;;;;;;;;;;;;30.74;28.81;99717.41;4998861;28;882;-61
2022/07/14 15:37:31;;;;;;;;;;;;;;;30.57;28.62;99716.94;4998608;28;800;-61
2022/07/14 15:42:45;;;;;;;;;;;;;;;30.43;28.73;99716.91;4998825;28;680;-60
2022/07/14 15:45:14;;;;;;;;;;;;;;;30.14;29.28;99721.50;4998478;28;838;-60
2022/07/14 15:47:42;;;;;;;;;;;;;;;29.86;29.24;99728.38;4998454;28;859;-60
2022/07/14 15:50:09;;;;;;;;;;;;;;;29.64;29.45;99722.97;4998219;28;1977;-60
2022/07/14 15:52:37;;;;;;;;;;;;;;;29.52;29.56;99725.94;4998466;28;921;-60
2022/07/14 15:55:08;;;;;;;;;;;;;;;29.50;29.59;99719.25;4998259;28;962;-61